createdAt,value
2018-06-30T00:01:49.840Z,75.20
2018-06-30T00:04:17.982Z,76.30
2018-06-30T00:06:46.226Z,74.80
2018-06-30T00:09:14.473Z,75.80
2018-06-30T00:11:42.672Z,73.60
2018-06-30T00:14:11.023Z,73.80
2018-06-30T00:16:39.390Z,68.90
2018-06-30T00:19:07.616Z,73.80
2018-06-30T00:21:35.875Z,74.40
2018-06-30T00:24:04.104Z,70.70
2018-06-30T00:26:32.353Z,70.40
2018-06-30T00:29:00.677Z,73.00
2018-06-30T00:31:28.900Z,72.00
2018-06-30T00:33:57.172Z,73.90
2018-06-30T00:36:25.343Z,73.00
2018-06-30T00:38:53.666Z,72.20
2018-06-30T00:41:21.976Z,72.80
2018-06-30T00:43:50.260Z,72.90
2018-06-30T00:46:18.471Z,72.80
2018-06-30T00:48:46.675Z,72.70
2018-06-30T00:51:14.971Z,72.40
2018-06-30T00:53:43.305Z,73.10
2018-06-30T00:56:11.617Z,72.60
2018-06-30T00:58:39.806Z,72.60
2018-06-30T01:01:08.043Z,72.40
2018-06-30T01:03:36.314Z,71.30
2018-06-30T01:06:04.634Z,72.50
2018-06-30T01:08:32.860Z,72.60
2018-06-30T01:11:01.123Z,71.90
2018-06-30T01:13:29.459Z,72.20
2018-06-30T01:15:57.727Z,72.70
2018-06-30T01:18:25.918Z,72.90
2018-06-30T01:20:54.158Z,72.70
2018-06-30T01:23:22.448Z,72.40
2018-06-30T01:25:50.642Z,72.30
2018-06-30T01:28:18.905Z,72.70
2018-06-30T01:30:47.136Z,73.10
2018-06-30T01:33:15.349Z,73.30
2018-06-30T01:35:43.606Z,72.20
2018-06-30T01:38:11.774Z,73.40
2018-06-30T01:40:40.089Z,73.30
2018-06-30T01:43:08.422Z,73.60
2018-06-30T01:45:36.605Z,72.90
2018-06-30T01:48:04.855Z,73.10
2018-06-30T01:53:04.854Z,73.90
2018-06-30T01:55:33.079Z,74.20
2018-06-30T01:58:01.317Z,74.50
2018-06-30T02:00:29.575Z,74.40
2018-06-30T02:02:57.796Z,74.30
2018-06-30T02:05:28.125Z,75.10
2018-06-30T02:07:56.383Z,74.40
2018-06-30T02:10:24.596Z,74.30
2018-06-30T02:12:52.819Z,74.30
2018-06-30T02:15:21.038Z,74.80
2018-06-30T02:17:49.322Z,75.90
2018-06-30T02:20:17.550Z,75.70
2018-06-30T02:22:45.711Z,75.70
2018-06-30T02:25:13.955Z,75.80
2018-06-30T02:27:42.137Z,76.30
2018-06-30T02:30:10.398Z,76.50
2018-06-30T02:32:38.634Z,76.50
2018-06-30T02:35:06.863Z,77.00
2018-06-30T02:37:35.104Z,77.40
2018-06-30T02:40:03.331Z,77.70
2018-06-30T02:42:31.662Z,77.20
2018-06-30T02:44:59.896Z,77.90
2018-06-30T02:47:28.131Z,76.60
2018-06-30T02:49:56.411Z,77.80
2018-06-30T02:52:24.654Z,77.10
2018-06-30T02:54:52.940Z,78.70
2018-06-30T02:57:21.155Z,78.10
2018-06-30T02:59:49.498Z,77.40
2018-06-30T03:02:17.722Z,79.50
2018-06-30T03:04:46.001Z,78.00
2018-06-30T03:07:14.248Z,79.90
2018-06-30T03:09:43.033Z,78.20
2018-06-30T03:12:11.201Z,80.30
2018-06-30T03:14:39.459Z,77.60
2018-06-30T03:17:07.710Z,79.00
2018-06-30T03:19:35.983Z,80.10
2018-06-30T03:22:08.733Z,77.30
2018-06-30T03:24:37.022Z,78.80
2018-06-30T03:27:05.283Z,81.00
2018-06-30T03:29:33.552Z,79.50
2018-06-30T03:32:01.820Z,81.40
2018-06-30T03:34:30.074Z,81.70
2018-06-30T03:36:58.383Z,80.70
2018-06-30T03:39:26.584Z,81.00
2018-06-30T03:41:54.839Z,82.00
2018-06-30T03:44:23.097Z,80.40
2018-06-30T03:46:51.281Z,80.10
2018-06-30T03:49:19.528Z,82.90
2018-06-30T03:51:47.722Z,81.50
2018-06-30T03:54:16.093Z,83.10
2018-06-30T03:56:44.381Z,79.20
2018-06-30T03:59:12.582Z,84.10
2018-06-30T04:01:40.812Z,82.90
2018-06-30T04:04:09.044Z,84.70
2018-06-30T04:06:37.306Z,84.90
2018-06-30T04:09:08.054Z,84.50
2018-06-30T04:11:36.243Z,85.00
2018-06-30T04:14:04.686Z,83.30
2018-06-30T04:16:32.891Z,86.00
2018-06-30T04:19:10.299Z,87.30
2018-06-30T04:21:38.462Z,88.60
2018-06-30T04:24:06.758Z,88.80
2018-06-30T04:26:35.068Z,87.90
2018-06-30T04:29:03.332Z,89.40
2018-06-30T04:31:31.590Z,88.70
2018-06-30T04:33:59.920Z,89.90
2018-06-30T04:36:28.155Z,88.90
2018-06-30T04:41:44.570Z,90.80
2018-06-30T04:44:12.837Z,90.80
2018-06-30T04:46:41.075Z,90.50
2018-06-30T04:49:09.310Z,90.10
2018-06-30T04:51:37.575Z,90.80
2018-06-30T04:54:05.722Z,90.80
2018-06-30T04:56:34.005Z,92.40
2018-06-30T04:59:02.280Z,92.40
2018-06-30T05:01:30.480Z,92.20
2018-06-30T05:03:58.793Z,93.00
2018-06-30T05:06:27.014Z,93.30
2018-06-30T05:08:55.252Z,93.60
2018-06-30T05:11:23.620Z,93.90
2018-06-30T05:13:51.931Z,94.50
2018-06-30T05:16:20.143Z,94.00
2018-06-30T05:18:48.288Z,93.50
2018-06-30T05:21:16.516Z,94.70
2018-06-30T05:23:44.791Z,95.60
2018-06-30T05:26:12.958Z,94.90
2018-06-30T05:28:41.138Z,95.00
2018-06-30T05:33:55.561Z,96.00
2018-06-30T05:36:23.875Z,95.50
2018-06-30T05:38:52.222Z,97.30
2018-06-30T05:41:20.459Z,97.80
2018-06-30T05:43:48.715Z,98.00
2018-06-30T05:46:17.118Z,98.30
2018-06-30T05:48:45.371Z,98.20
2018-06-30T05:51:13.758Z,98.50
2018-06-30T05:53:42.046Z,98.50
2018-06-30T05:56:10.475Z,98.70
2018-06-30T05:58:38.778Z,98.60
2018-06-30T06:01:07.310Z,99.40
2018-06-30T06:06:03.166Z,99.70
2018-06-30T06:08:31.305Z,99.90
2018-06-30T06:10:59.506Z,99.90
2018-06-30T06:13:27.670Z,99.90
2018-06-30T06:15:55.902Z,99.90
2018-06-30T06:18:24.098Z,99.90
2018-06-30T06:20:52.338Z,99.90
2018-06-30T06:23:20.594Z,99.90
2018-06-30T06:25:48.921Z,99.90
2018-06-30T06:28:17.043Z,99.90
2018-06-30T06:30:45.197Z,99.90
2018-06-30T06:33:13.414Z,99.90
2018-06-30T06:35:41.644Z,99.60
2018-06-30T06:38:09.934Z,99.70
2018-06-30T06:40:38.082Z,99.30
2018-06-30T06:45:33.965Z,99.00
2018-06-30T06:48:02.266Z,98.60
2018-06-30T06:50:30.474Z,98.10
2018-06-30T06:52:58.893Z,98.30
2018-06-30T06:55:27.257Z,97.10
2018-06-30T06:57:55.455Z,97.40
2018-06-30T07:00:23.679Z,97.00
2018-06-30T07:02:51.956Z,97.40
2018-06-30T07:05:20.111Z,96.70
2018-06-30T07:07:48.334Z,96.10
2018-06-30T07:10:16.567Z,95.80
2018-06-30T07:12:44.891Z,96.30
2018-06-30T07:15:13.419Z,96.00
2018-06-30T07:17:41.661Z,95.70
2018-06-30T07:20:09.971Z,95.50
2018-06-30T07:22:38.381Z,95.40
2018-06-30T07:25:06.685Z,94.90
2018-06-30T07:27:34.910Z,94.70
2018-06-30T07:30:03.254Z,94.00
2018-06-30T07:32:31.515Z,94.10
2018-06-30T07:34:59.760Z,93.90
2018-06-30T07:37:28.054Z,94.10
2018-06-30T07:39:56.379Z,93.70
2018-06-30T07:42:24.557Z,93.20
2018-06-30T07:44:52.911Z,93.30
2018-06-30T07:47:21.496Z,93.10
2018-06-30T07:49:49.847Z,93.20
2018-06-30T07:52:18.149Z,91.90
2018-06-30T07:54:48.534Z,91.30
2018-06-30T07:57:16.804Z,91.30
2018-06-30T08:02:12.749Z,90.40
2018-06-30T08:04:41.022Z,90.00
2018-06-30T08:07:09.288Z,88.00
2018-06-30T08:09:37.613Z,88.30
2018-06-30T08:12:05.861Z,87.10
2018-06-30T08:14:34.201Z,86.20
2018-06-30T08:17:02.482Z,85.70
2018-06-30T08:19:30.806Z,88.20
2018-06-30T08:21:59.009Z,85.20
2018-06-30T08:24:27.226Z,85.70
2018-06-30T08:26:55.497Z,83.80
2018-06-30T08:29:23.844Z,86.20
2018-06-30T08:31:52.092Z,84.80
2018-06-30T08:34:20.379Z,83.00
2018-06-30T08:36:48.674Z,81.50
2018-06-30T08:39:16.878Z,82.60
2018-06-30T08:41:45.065Z,80.80
2018-06-30T08:44:13.372Z,82.70
2018-06-30T08:46:41.553Z,81.20
2018-06-30T08:49:09.806Z,80.50
2018-06-30T08:51:38.039Z,80.40
2018-06-30T08:54:06.335Z,80.30
2018-06-30T08:56:34.572Z,78.70
2018-06-30T08:59:02.747Z,79.60
2018-06-30T09:01:31.048Z,78.80
2018-06-30T09:03:59.303Z,77.50
2018-06-30T09:06:27.554Z,79.70
2018-06-30T09:08:55.838Z,77.30
2018-06-30T09:11:24.218Z,78.80
2018-06-30T09:13:52.603Z,76.90
2018-06-30T09:16:20.831Z,76.00
2018-06-30T09:18:49.006Z,75.80
2018-06-30T09:23:44.937Z,75.70
2018-06-30T09:26:13.284Z,75.40
2018-06-30T09:28:41.640Z,75.60
2018-06-30T09:31:09.987Z,74.60
2018-06-30T09:33:38.299Z,73.00
2018-06-30T09:36:06.888Z,74.30
2018-06-30T09:38:35.042Z,73.00
2018-06-30T09:41:03.122Z,71.70
2018-06-30T09:43:31.181Z,72.10
2018-06-30T09:45:59.306Z,73.00
2018-06-30T09:48:27.391Z,70.00
2018-06-30T09:50:55.659Z,69.20
2018-06-30T09:53:23.719Z,71.40
2018-06-30T09:55:51.770Z,68.20
2018-06-30T09:58:19.869Z,68.40
2018-06-30T10:00:54.968Z,67.90
2018-06-30T10:03:23.547Z,69.30
2018-06-30T10:05:51.626Z,67.70
2018-06-30T10:08:19.709Z,67.30
2018-06-30T10:10:47.869Z,66.60
2018-06-30T10:13:16.157Z,67.50
2018-06-30T10:15:44.319Z,65.10
2018-06-30T10:18:12.994Z,64.60
2018-06-30T10:20:41.158Z,65.20
2018-06-30T10:23:09.411Z,67.20
2018-06-30T10:25:37.610Z,64.70
2018-06-30T10:28:05.860Z,62.60
2018-06-30T10:30:34.051Z,62.40
2018-06-30T10:33:02.198Z,62.20
2018-06-30T10:35:30.321Z,62.40
2018-06-30T10:37:58.369Z,63.70
2018-06-30T10:40:26.542Z,62.20
2018-06-30T10:42:54.626Z,62.20
2018-06-30T10:45:22.735Z,61.00
2018-06-30T10:47:50.910Z,61.30
2018-06-30T10:50:18.985Z,63.60
2018-06-30T10:52:47.115Z,60.40
2018-06-30T10:55:15.282Z,58.90
2018-06-30T10:57:43.397Z,60.50
2018-06-30T11:00:11.703Z,58.90
2018-06-30T11:02:40.157Z,59.40
2018-06-30T11:05:08.629Z,57.30
2018-06-30T11:07:36.972Z,59.50
2018-06-30T11:10:05.359Z,57.30
2018-06-30T11:12:33.711Z,58.50
2018-06-30T11:15:02.106Z,58.70
2018-06-30T11:17:30.454Z,58.60
2018-06-30T11:19:59.035Z,56.20
2018-06-30T11:22:27.474Z,56.20
2018-06-30T11:24:55.870Z,57.20
2018-06-30T11:27:24.480Z,55.10
2018-06-30T11:29:52.742Z,55.50
2018-06-30T11:32:21.044Z,55.40
2018-06-30T11:34:49.294Z,55.50
2018-06-30T11:37:17.542Z,54.40
2018-06-30T11:39:45.766Z,54.90
2018-06-30T11:42:14.132Z,54.50
2018-06-30T11:44:42.356Z,54.50
2018-06-30T11:47:10.741Z,55.10
2018-06-30T11:49:38.977Z,53.70
2018-06-30T11:52:07.170Z,53.00
2018-06-30T11:54:35.506Z,54.30
2018-06-30T11:57:03.955Z,54.40
2018-06-30T11:59:32.249Z,52.50
2018-06-30T12:02:00.530Z,52.50
2018-06-30T12:04:28.714Z,51.80
2018-06-30T12:06:57.007Z,52.10
2018-06-30T12:09:25.310Z,51.10
2018-06-30T12:11:53.599Z,51.10
2018-06-30T12:14:21.810Z,51.50
2018-06-30T12:16:50.023Z,51.60
2018-06-30T12:19:18.181Z,50.30
2018-06-30T12:21:46.358Z,50.60
2018-06-30T12:24:14.583Z,52.90
2018-06-30T12:26:42.851Z,51.20
2018-06-30T12:29:11.218Z,49.80
2018-06-30T12:31:39.410Z,50.40
2018-06-30T12:34:07.605Z,49.10
2018-06-30T12:36:35.907Z,48.90
2018-06-30T12:39:04.840Z,49.90
2018-06-30T12:41:33.100Z,49.30
2018-06-30T12:44:01.340Z,48.40
2018-06-30T12:46:29.531Z,49.20
2018-06-30T12:48:57.715Z,47.70
2018-06-30T12:51:26.000Z,47.30
2018-06-30T12:53:54.314Z,49.20
2018-06-30T12:56:22.607Z,48.20
2018-06-30T12:58:50.890Z,47.30
2018-06-30T13:01:19.232Z,47.20
2018-06-30T13:03:47.532Z,47.30
2018-06-30T13:06:15.777Z,46.80
2018-06-30T13:08:44.378Z,47.10
2018-06-30T13:11:12.658Z,47.70
2018-06-30T13:13:40.946Z,46.30
2018-06-30T13:16:09.233Z,46.70
2018-06-30T13:18:37.718Z,49.00
2018-06-30T13:21:06.193Z,46.90
2018-06-30T13:23:34.474Z,46.40
2018-06-30T13:26:02.890Z,45.80
2018-06-30T13:30:58.888Z,45.40
2018-06-30T13:33:27.304Z,47.50
2018-06-30T13:35:55.510Z,45.80
2018-06-30T13:38:23.790Z,44.40
2018-06-30T13:40:52.268Z,44.00
2018-06-30T13:43:20.593Z,44.00
2018-06-30T13:45:48.987Z,44.50
2018-06-30T13:50:44.931Z,44.40
2018-06-30T13:53:13.240Z,43.80
2018-06-30T13:55:41.485Z,42.60
2018-06-30T13:58:09.796Z,43.30
2018-06-30T14:00:38.029Z,43.00
2018-06-30T14:05:34.082Z,43.30
2018-06-30T14:08:02.255Z,42.90
2018-06-30T14:10:30.603Z,41.70
2018-06-30T14:12:58.966Z,42.90
2018-06-30T14:15:30.564Z,43.20
2018-06-30T14:17:58.838Z,42.70
2018-06-30T14:20:27.183Z,41.70
2018-06-30T14:22:55.468Z,40.90
2018-06-30T14:25:23.703Z,41.90
2018-06-30T14:27:52.042Z,42.00
2018-06-30T14:32:48.003Z,40.40
2018-06-30T14:35:16.223Z,42.30
2018-06-30T14:37:44.805Z,40.30
2018-06-30T14:40:13.162Z,42.50
2018-06-30T14:42:41.485Z,41.40
2018-06-30T14:45:09.753Z,41.70
2018-06-30T14:47:38.061Z,40.80
2018-06-30T14:50:06.391Z,40.20
2018-06-30T14:52:34.703Z,40.20
2018-06-30T14:55:02.997Z,39.10
2018-06-30T14:57:31.257Z,39.80
2018-06-30T14:59:59.547Z,41.10
2018-06-30T15:02:27.766Z,39.90
2018-06-30T15:04:56.127Z,38.80
2018-06-30T15:07:24.537Z,39.10
2018-06-30T15:09:52.835Z,37.80
2018-06-30T15:12:21.066Z,38.30
2018-06-30T15:14:49.388Z,39.50
2018-06-30T15:17:17.626Z,37.90
2018-06-30T15:19:45.952Z,38.10
2018-06-30T15:22:14.196Z,38.70
2018-06-30T15:24:42.451Z,39.30
2018-06-30T15:27:11.782Z,37.50
2018-06-30T15:29:40.026Z,37.90
2018-06-30T15:32:08.331Z,38.90
2018-06-30T15:34:36.567Z,38.00
2018-06-30T15:37:04.899Z,38.00
2018-06-30T15:39:33.055Z,38.70
2018-06-30T15:42:01.406Z,39.20
2018-06-30T15:44:29.872Z,37.20
2018-06-30T15:46:58.309Z,37.40
2018-06-30T15:49:26.606Z,36.90
2018-06-30T15:51:54.839Z,37.30
2018-06-30T15:54:23.074Z,36.80
2018-06-30T15:56:51.562Z,36.80
2018-06-30T15:59:19.732Z,37.70
2018-06-30T16:01:47.934Z,37.00
2018-06-30T16:04:16.161Z,36.20
2018-06-30T16:06:44.503Z,36.70
2018-06-30T16:09:12.782Z,36.30
2018-06-30T16:11:41.213Z,37.30
2018-06-30T16:14:10.004Z,36.00
2018-06-30T16:16:38.851Z,35.70
2018-06-30T16:19:07.070Z,35.60
2018-06-30T16:21:35.459Z,35.20
2018-06-30T16:24:03.706Z,37.20
2018-06-30T16:26:32.048Z,36.40
2018-06-30T16:29:00.254Z,35.90
2018-06-30T16:31:28.483Z,34.70
2018-06-30T16:33:56.893Z,35.40
2018-06-30T16:36:25.666Z,35.20
2018-06-30T16:38:53.916Z,35.20
2018-06-30T16:41:22.148Z,35.60
2018-06-30T16:43:50.512Z,35.90
2018-06-30T16:46:18.745Z,35.70
2018-06-30T16:48:46.921Z,36.10
2018-06-30T16:51:15.263Z,34.50
2018-06-30T16:53:43.572Z,34.80
2018-06-30T16:56:11.811Z,35.10
2018-06-30T16:58:40.152Z,35.20
2018-06-30T17:01:08.398Z,34.90
2018-06-30T17:03:36.666Z,35.50
2018-06-30T17:06:04.975Z,35.10
2018-06-30T17:08:33.335Z,36.20
2018-06-30T17:11:01.571Z,35.20
2018-06-30T17:13:29.835Z,36.00
2018-06-30T17:15:58.070Z,35.10
2018-06-30T17:18:26.304Z,34.90
2018-06-30T17:20:54.575Z,34.30
2018-06-30T17:23:22.953Z,34.20
2018-06-30T17:25:51.238Z,35.80
2018-06-30T17:28:19.538Z,34.00
2018-06-30T17:30:47.831Z,34.80
2018-06-30T17:33:16.087Z,34.70
2018-06-30T17:35:44.272Z,34.70
2018-06-30T17:38:12.507Z,34.60
2018-06-30T17:40:40.766Z,34.20
2018-06-30T17:43:09.002Z,35.00
2018-06-30T17:45:37.279Z,34.90
2018-06-30T17:48:05.633Z,35.30
2018-06-30T17:50:33.928Z,35.40
2018-06-30T17:53:02.580Z,35.80
2018-06-30T17:55:30.839Z,35.50
2018-06-30T17:57:59.063Z,35.80
2018-06-30T18:00:27.295Z,36.00
2018-06-30T18:02:55.474Z,36.00
2018-06-30T18:05:23.834Z,36.40
2018-06-30T18:07:52.058Z,37.60
2018-06-30T18:10:20.400Z,37.40
2018-06-30T18:12:48.590Z,37.20
2018-06-30T18:15:16.860Z,37.60
2018-06-30T18:17:45.232Z,37.90
2018-06-30T18:20:13.486Z,38.40
2018-06-30T18:22:41.840Z,37.50
2018-06-30T18:25:10.028Z,37.50
2018-06-30T18:27:38.237Z,38.10
2018-06-30T18:30:06.905Z,38.30
2018-06-30T18:32:35.124Z,39.40
2018-06-30T18:35:03.414Z,38.90
2018-06-30T18:37:31.629Z,38.70
2018-06-30T18:40:00.045Z,38.90
2018-06-30T18:42:28.315Z,38.50
2018-06-30T18:44:56.652Z,39.50
2018-06-30T18:47:24.882Z,39.60
2018-06-30T18:49:53.091Z,39.80
2018-06-30T18:52:21.491Z,39.90
2018-06-30T18:54:49.690Z,39.90
2018-06-30T18:57:17.919Z,40.30
2018-06-30T18:59:46.183Z,40.20
2018-06-30T19:02:14.497Z,40.20
2018-06-30T19:04:42.751Z,40.20
2018-06-30T19:07:10.985Z,40.20
2018-06-30T19:09:39.223Z,40.70
2018-06-30T19:12:07.606Z,40.70
2018-06-30T19:14:35.762Z,40.80
2018-06-30T19:17:04.084Z,41.10
2018-06-30T19:19:32.399Z,41.30
2018-06-30T19:22:00.641Z,41.10
2018-06-30T19:24:28.910Z,41.20
2018-06-30T19:26:57.134Z,41.40
2018-06-30T19:29:25.491Z,41.30
2018-06-30T19:31:53.674Z,40.40
2018-06-30T19:34:21.872Z,41.10
2018-06-30T19:36:50.145Z,41.30
2018-06-30T19:39:18.367Z,41.30
2018-06-30T19:41:46.629Z,41.80
2018-06-30T19:44:14.796Z,41.80
2018-06-30T19:46:43.096Z,41.90
2018-06-30T19:49:11.339Z,42.20
2018-06-30T19:51:39.656Z,42.00
2018-06-30T19:54:07.925Z,41.90
2018-06-30T19:56:36.182Z,42.30
2018-06-30T19:59:04.511Z,42.60
2018-06-30T20:01:32.715Z,42.80
2018-06-30T20:04:00.967Z,42.90
2018-06-30T20:06:29.162Z,42.90
2018-06-30T20:08:57.386Z,42.60
2018-06-30T20:11:25.583Z,42.90
2018-06-30T20:13:53.814Z,42.90
2018-06-30T20:16:22.026Z,43.30
2018-06-30T20:18:50.274Z,43.50
2018-06-30T20:21:18.508Z,43.60
2018-06-30T20:23:46.927Z,44.40
2018-06-30T20:26:15.226Z,43.00
2018-06-30T20:28:43.514Z,43.80
2018-06-30T20:31:11.792Z,44.00
2018-06-30T20:33:40.028Z,44.30
2018-06-30T20:36:08.256Z,43.80
2018-06-30T20:38:36.449Z,44.20
2018-06-30T20:41:04.670Z,43.70
2018-06-30T20:43:32.909Z,44.40
2018-06-30T20:46:01.259Z,44.60
2018-06-30T20:48:29.606Z,45.10
2018-06-30T20:50:57.860Z,44.90
2018-06-30T20:53:26.232Z,45.50
2018-06-30T20:55:54.814Z,45.40
2018-06-30T20:58:23.060Z,45.30
2018-06-30T21:00:51.439Z,45.80
2018-06-30T21:03:19.711Z,45.30
2018-06-30T21:05:48.035Z,45.50
2018-06-30T21:08:16.316Z,45.00
2018-06-30T21:10:44.571Z,45.20
2018-06-30T21:13:12.865Z,45.80
2018-06-30T21:15:41.117Z,45.70
2018-06-30T21:18:09.286Z,45.60
2018-06-30T21:20:37.527Z,45.80
2018-06-30T21:23:05.811Z,44.90
2018-06-30T21:25:34.110Z,46.10
2018-06-30T21:28:02.327Z,46.10
2018-06-30T21:30:30.572Z,45.90
2018-06-30T21:32:58.855Z,45.80
2018-06-30T21:35:27.047Z,46.40
2018-06-30T21:37:55.307Z,46.90
2018-06-30T21:40:23.639Z,46.90
2018-06-30T21:42:51.816Z,46.60
2018-06-30T21:45:20.028Z,46.00
2018-06-30T21:47:48.210Z,46.40
2018-06-30T21:50:16.628Z,46.00
2018-06-30T21:52:44.939Z,46.70
2018-06-30T21:55:13.223Z,47.00
2018-06-30T21:57:41.661Z,47.10
2018-06-30T22:00:12.017Z,47.20
2018-06-30T22:02:40.444Z,47.00
2018-06-30T22:05:08.722Z,46.90
2018-06-30T22:07:37.212Z,46.90
2018-06-30T22:10:06.135Z,46.70
2018-06-30T22:12:34.911Z,47.00
2018-06-30T22:15:03.403Z,47.10
2018-06-30T22:17:31.724Z,48.00
2018-06-30T22:19:59.950Z,46.90
2018-06-30T22:22:28.273Z,47.30
2018-06-30T22:24:56.524Z,47.10
2018-06-30T22:27:24.786Z,47.30
2018-06-30T22:29:53.039Z,47.30
2018-06-30T22:32:21.296Z,47.40
2018-06-30T22:34:49.551Z,47.40
2018-06-30T22:37:17.826Z,47.90
2018-06-30T22:39:51.475Z,47.50
2018-06-30T22:42:19.734Z,47.50
2018-06-30T22:44:47.982Z,47.20
2018-06-30T22:47:16.422Z,48.00
2018-06-30T22:49:44.716Z,47.80
2018-06-30T22:52:12.905Z,47.90
2018-06-30T22:54:41.212Z,47.60
2018-06-30T22:59:37.289Z,47.80
2018-06-30T23:02:05.530Z,48.70
2018-06-30T23:04:33.749Z,48.80
2018-06-30T23:07:02.011Z,48.40
2018-06-30T23:09:30.249Z,49.20
2018-06-30T23:11:58.437Z,49.10
2018-06-30T23:16:54.429Z,49.30
2018-06-30T23:19:22.672Z,49.40
2018-06-30T23:21:50.890Z,49.50
2018-06-30T23:24:19.163Z,49.50
2018-06-30T23:26:47.687Z,49.60
2018-06-30T23:29:16.032Z,49.70
2018-06-30T23:31:44.320Z,49.80
2018-06-30T23:34:12.555Z,49.30
2018-06-30T23:36:40.856Z,49.70
2018-06-30T23:39:10.237Z,48.90
2018-06-30T23:41:38.549Z,49.50
2018-06-30T23:44:06.815Z,49.40
2018-06-30T23:46:35.075Z,49.50
2018-06-30T23:49:03.381Z,49.60
2018-06-30T23:51:31.721Z,50.10
2018-06-30T23:53:59.958Z,50.40
2018-06-30T23:56:28.178Z,49.70
2018-06-30T23:58:56.423Z,50.30
